sensor_id;sensor_type;location;lat;lon;timestamp;temperature;humidity
488;DHT22;16586;48.976;9.584;2023-03-21T00:01:12;11.90;49.70
488;DHT22;16586;48.976;9.584;2023-03-21T00:03:40;11.90;49.80
488;DHT22;16586;48.976;9.584;2023-03-21T00:06:09;11.90;49.70
488;DHT22;16586;48.976;9.584;2023-03-21T00:08:37;11.80;49.50
488;DHT22;16586;48.976;9.584;2023-03-21T00:11:06;11.80;49.70
488;DHT22;16586;48.976;9.584;2023-03-21T00:13:34;11.80;49.80
488;DHT22;16586;48.976;9.584;2023-03-21T00:16:04;11.70;49.60
488;DHT22;16586;48.976;9.584;2023-03-21T00:18:33;11.70;49.60
488;DHT22;16586;48.976;9.584;2023-03-21T00:21:07;11.60;49.80
488;DHT22;16586;48.976;9.584;2023-03-21T00:23:34;11.60;49.90
488;DHT22;16586;48.976;9.584;2023-03-21T00:26:01;11.60;49.90
488;DHT22;16586;48.976;9.584;2023-03-21T00:28:28;11.50;50.00
488;DHT22;16586;48.976;9.584;2023-03-21T00:30:56;11.50;50.20
488;DHT22;16586;48.976;9.584;2023-03-21T00:33:23;11.50;50.20
488;DHT22;16586;48.976;9.584;2023-03-21T00:35:52;11.50;50.40
488;DHT22;16586;48.976;9.584;2023-03-21T00:38:19;11.50;50.30
488;DHT22;16586;48.976;9.584;2023-03-21T00:40:46;11.50;50.50
488;DHT22;16586;48.976;9.584;2023-03-21T00:43:13;11.50;50.50
488;DHT22;16586;48.976;9.584;2023-03-21T00:45:42;11.50;50.50
488;DHT22;16586;48.976;9.584;2023-03-21T00:48:09;11.60;50.60
488;DHT22;16586;48.976;9.584;2023-03-21T00:50:36;11.60;50.50
488;DHT22;16586;48.976;9.584;2023-03-21T00:53:04;11.60;50.50
488;DHT22;16586;48.976;9.584;2023-03-21T00:55:31;11.60;50.40
488;DHT22;16586;48.976;9.584;2023-03-21T00:57:58;11.70;50.40
488;DHT22;16586;48.976;9.584;2023-03-21T01:00:25;11.70;50.40
488;DHT22;16586;48.976;9.584;2023-03-21T01:02:52;11.70;50.40
488;DHT22;16586;48.976;9.584;2023-03-21T01:05:31;11.60;50.20
488;DHT22;16586;48.976;9.584;2023-03-21T01:08:19;11.60;50.20
488;DHT22;16586;48.976;9.584;2023-03-21T01:10:47;11.60;50.20
488;DHT22;16586;48.976;9.584;2023-03-21T01:13:16;11.50;50.30
488;DHT22;16586;48.976;9.584;2023-03-21T01:15:44;11.50;50.50
488;DHT22;16586;48.976;9.584;2023-03-21T01:18:12;11.50;50.70
488;DHT22;16586;48.976;9.584;2023-03-21T01:20:39;11.50;50.80
488;DHT22;16586;48.976;9.584;2023-03-21T01:23:07;11.50;50.80
488;DHT22;16586;48.976;9.584;2023-03-21T01:25:35;11.50;50.90
488;DHT22;16586;48.976;9.584;2023-03-21T01:28:02;11.50;50.90
488;DHT22;16586;48.976;9.584;2023-03-21T01:30:29;11.60;50.90
488;DHT22;16586;48.976;9.584;2023-03-21T01:32:56;11.60;50.90
488;DHT22;16586;48.976;9.584;2023-03-21T01:35:23;11.60;50.70
488;DHT22;16586;48.976;9.584;2023-03-21T01:37:50;11.50;50.60
488;DHT22;16586;48.976;9.584;2023-03-21T01:40:18;11.50;50.80
488;DHT22;16586;48.976;9.584;2023-03-21T01:42:47;11.50;50.80
488;DHT22;16586;48.976;9.584;2023-03-21T01:48:18;11.50;50.60
488;DHT22;16586;48.976;9.584;2023-03-21T01:50:46;11.50;50.80
488;DHT22;16586;48.976;9.584;2023-03-21T01:53:14;11.50;50.70
488;DHT22;16586;48.976;9.584;2023-03-21T01:55:42;11.50;50.80
488;DHT22;16586;48.976;9.584;2023-03-21T01:58:10;11.40;50.70
488;DHT22;16586;48.976;9.584;2023-03-21T02:00:38;11.30;51.00
488;DHT22;16586;48.976;9.584;2023-03-21T02:03:07;11.30;51.30
488;DHT22;16586;48.976;9.584;2023-03-21T02:05:39;11.30;51.40
488;DHT22;16586;48.976;9.584;2023-03-21T02:08:06;11.30;51.20
488;DHT22;16586;48.976;9.584;2023-03-21T02:10:33;11.30;51.40
488;DHT22;16586;48.976;9.584;2023-03-21T02:13:03;11.30;51.30
488;DHT22;16586;48.976;9.584;2023-03-21T02:15:36;11.20;51.20
488;DHT22;16586;48.976;9.584;2023-03-21T02:18:08;11.20;51.20
488;DHT22;16586;48.976;9.584;2023-03-21T02:21:07;11.20;51.40
488;DHT22;16586;48.976;9.584;2023-03-21T02:23:54;11.30;51.50
488;DHT22;16586;48.976;9.584;2023-03-21T02:29:43;11.30;51.20
488;DHT22;16586;48.976;9.584;2023-03-21T02:32:27;11.30;51.10
488;DHT22;16586;48.976;9.584;2023-03-21T02:35:06;11.40;50.90
488;DHT22;16586;48.976;9.584;2023-03-21T02:37:39;11.40;50.90
488;DHT22;16586;48.976;9.584;2023-03-21T02:40:10;11.30;50.90
488;DHT22;16586;48.976;9.584;2023-03-21T02:42:48;11.30;51.00
488;DHT22;16586;48.976;9.584;2023-03-21T02:45:20;11.20;51.00
488;DHT22;16586;48.976;9.584;2023-03-21T02:47:49;11.20;51.30
488;DHT22;16586;48.976;9.584;2023-03-21T02:50:20;11.10;51.60
488;DHT22;16586;48.976;9.584;2023-03-21T02:52:51;11.20;51.80
488;DHT22;16586;48.976;9.584;2023-03-21T02:55:24;11.20;51.80
488;DHT22;16586;48.976;9.584;2023-03-21T02:57:53;11.30;51.90
488;DHT22;16586;48.976;9.584;2023-03-21T03:00:23;11.30;51.50
488;DHT22;16586;48.976;9.584;2023-03-21T03:02:52;11.30;51.50
488;DHT22;16586;48.976;9.584;2023-03-21T03:05:21;11.30;51.90
488;DHT22;16586;48.976;9.584;2023-03-21T03:07:59;11.20;51.20
488;DHT22;16586;48.976;9.584;2023-03-21T03:10:42;11.20;51.20
488;DHT22;16586;48.976;9.584;2023-03-21T03:13:22;11.20;51.20
488;DHT22;16586;48.976;9.584;2023-03-21T03:15:58;11.20;51.30
488;DHT22;16586;48.976;9.584;2023-03-21T03:18:33;11.30;51.50
488;DHT22;16586;48.976;9.584;2023-03-21T03:21:09;11.20;51.50
488;DHT22;16586;48.976;9.584;2023-03-21T03:23:44;11.10;51.70
488;DHT22;16586;48.976;9.584;2023-03-21T03:26:15;11.10;51.70
488;DHT22;16586;48.976;9.584;2023-03-21T03:28:46;11.10;51.60
488;DHT22;16586;48.976;9.584;2023-03-21T03:31:18;11.00;51.60
488;DHT22;16586;48.976;9.584;2023-03-21T03:33:52;11.00;51.50
488;DHT22;16586;48.976;9.584;2023-03-21T03:36:19;11.00;51.60
488;DHT22;16586;48.976;9.584;2023-03-21T03:38:50;11.00;51.90
488;DHT22;16586;48.976;9.584;2023-03-21T03:41:21;11.00;51.60
488;DHT22;16586;48.976;9.584;2023-03-21T03:43:52;11.00;51.60
488;DHT22;16586;48.976;9.584;2023-03-21T03:46:26;11.00;51.80
488;DHT22;16586;48.976;9.584;2023-03-21T03:48:55;11.10;51.70
488;DHT22;16586;48.976;9.584;2023-03-21T03:51:26;11.10;51.60
488;DHT22;16586;48.976;9.584;2023-03-21T03:53:59;11.10;51.70
488;DHT22;16586;48.976;9.584;2023-03-21T03:56:28;11.10;51.70
488;DHT22;16586;48.976;9.584;2023-03-21T03:58:56;11.10;51.60
488;DHT22;16586;48.976;9.584;2023-03-21T04:01:23;11.10;51.60
488;DHT22;16586;48.976;9.584;2023-03-21T04:03:51;11.00;51.50
488;DHT22;16586;48.976;9.584;2023-03-21T04:06:18;11.00;51.60
488;DHT22;16586;48.976;9.584;2023-03-21T04:08:46;11.00;51.50
488;DHT22;16586;48.976;9.584;2023-03-21T04:11:15;11.00;51.60
488;DHT22;16586;48.976;9.584;2023-03-21T04:13:42;11.00;51.90
488;DHT22;16586;48.976;9.584;2023-03-21T04:16:09;11.00;51.60
488;DHT22;16586;48.976;9.584;2023-03-21T04:18:37;11.00;51.70
488;DHT22;16586;48.976;9.584;2023-03-21T04:21:07;10.90;51.80
488;DHT22;16586;48.976;9.584;2023-03-21T04:23:34;10.90;51.90
488;DHT22;16586;48.976;9.584;2023-03-21T04:26:01;10.90;52.30
488;DHT22;16586;48.976;9.584;2023-03-21T04:28:29;11.00;52.10
488;DHT22;16586;48.976;9.584;2023-03-21T04:30:56;11.00;52.00
488;DHT22;16586;48.976;9.584;2023-03-21T04:33:23;10.90;51.80
488;DHT22;16586;48.976;9.584;2023-03-21T04:35:50;10.90;51.90
488;DHT22;16586;48.976;9.584;2023-03-21T04:38:21;10.90;51.90
488;DHT22;16586;48.976;9.584;2023-03-21T04:40:48;11.00;52.10
488;DHT22;16586;48.976;9.584;2023-03-21T04:43:14;11.00;51.80
488;DHT22;16586;48.976;9.584;2023-03-21T04:45:43;11.00;51.60
488;DHT22;16586;48.976;9.584;2023-03-21T04:48:09;11.00;51.80
488;DHT22;16586;48.976;9.584;2023-03-21T04:50:38;11.00;51.80
488;DHT22;16586;48.976;9.584;2023-03-21T04:53:05;10.90;51.70
488;DHT22;16586;48.976;9.584;2023-03-21T04:55:32;10.90;51.50
488;DHT22;16586;48.976;9.584;2023-03-21T04:57:58;10.90;51.90
488;DHT22;16586;48.976;9.584;2023-03-21T05:00:25;10.90;52.10
488;DHT22;16586;48.976;9.584;2023-03-21T05:02:53;10.90;52.10
488;DHT22;16586;48.976;9.584;2023-03-21T05:05:22;10.90;52.00
488;DHT22;16586;48.976;9.584;2023-03-21T05:07:48;10.90;52.00
488;DHT22;16586;48.976;9.584;2023-03-21T05:10:15;10.90;52.00
488;DHT22;16586;48.976;9.584;2023-03-21T05:12:42;10.90;51.60
488;DHT22;16586;48.976;9.584;2023-03-21T05:15:09;10.90;51.90
488;DHT22;16586;48.976;9.584;2023-03-21T05:17:36;10.90;51.80
488;DHT22;16586;48.976;9.584;2023-03-21T05:20:05;10.90;51.90
488;DHT22;16586;48.976;9.584;2023-03-21T05:22:34;10.80;52.00
488;DHT22;16586;48.976;9.584;2023-03-21T05:25:07;10.80;52.20
488;DHT22;16586;48.976;9.584;2023-03-21T05:27:34;10.80;52.40
488;DHT22;16586;48.976;9.584;2023-03-21T05:30:03;10.80;52.50
488;DHT22;16586;48.976;9.584;2023-03-21T05:32:31;10.80;52.70
488;DHT22;16586;48.976;9.584;2023-03-21T05:34:58;10.80;52.90
488;DHT22;16586;48.976;9.584;2023-03-21T05:37:26;10.80;52.90
488;DHT22;16586;48.976;9.584;2023-03-21T05:39:53;10.90;52.80
488;DHT22;16586;48.976;9.584;2023-03-21T05:42:20;10.90;52.60
488;DHT22;16586;48.976;9.584;2023-03-21T05:44:47;10.90;52.70
488;DHT22;16586;48.976;9.584;2023-03-21T05:47:15;10.80;52.80
488;DHT22;16586;48.976;9.584;2023-03-21T05:49:43;10.90;52.90
488;DHT22;16586;48.976;9.584;2023-03-21T05:52:10;10.90;53.00
488;DHT22;16586;48.976;9.584;2023-03-21T05:54:38;10.90;52.90
488;DHT22;16586;48.976;9.584;2023-03-21T05:57:05;10.90;53.70
488;DHT22;16586;48.976;9.584;2023-03-21T05:59:32;11.00;53.30
488;DHT22;16586;48.976;9.584;2023-03-21T06:01:59;11.10;52.90
488;DHT22;16586;48.976;9.584;2023-03-21T06:04:25;11.10;52.60
488;DHT22;16586;48.976;9.584;2023-03-21T06:06:52;11.10;52.60
488;DHT22;16586;48.976;9.584;2023-03-21T06:09:20;11.20;52.60
488;DHT22;16586;48.976;9.584;2023-03-21T06:11:51;11.20;52.40
488;DHT22;16586;48.976;9.584;2023-03-21T06:14:18;11.20;52.20
488;DHT22;16586;48.976;9.584;2023-03-21T06:16:45;11.30;52.40
488;DHT22;16586;48.976;9.584;2023-03-21T06:19:12;11.20;52.20
488;DHT22;16586;48.976;9.584;2023-03-21T06:21:39;11.20;52.60
488;DHT22;16586;48.976;9.584;2023-03-21T06:24:06;11.30;52.80
488;DHT22;16586;48.976;9.584;2023-03-21T06:26:33;11.20;52.50
488;DHT22;16586;48.976;9.584;2023-03-21T06:29:01;11.20;52.70
488;DHT22;16586;48.976;9.584;2023-03-21T06:31:28;11.30;53.20
488;DHT22;16586;48.976;9.584;2023-03-21T06:33:55;11.30;53.20
488;DHT22;16586;48.976;9.584;2023-03-21T06:36:21;11.40;53.10
488;DHT22;16586;48.976;9.584;2023-03-21T06:38:48;11.40;52.80
488;DHT22;16586;48.976;9.584;2023-03-21T06:41:15;11.50;52.10
488;DHT22;16586;48.976;9.584;2023-03-21T06:43:42;11.50;52.00
488;DHT22;16586;48.976;9.584;2023-03-21T06:46:10;11.50;52.50
488;DHT22;16586;48.976;9.584;2023-03-21T06:48:37;11.60;52.20
488;DHT22;16586;48.976;9.584;2023-03-21T06:51:09;11.60;52.10
488;DHT22;16586;48.976;9.584;2023-03-21T06:53:37;11.70;52.20
488;DHT22;16586;48.976;9.584;2023-03-21T06:56:04;11.70;52.20
488;DHT22;16586;48.976;9.584;2023-03-21T06:58:31;11.80;52.30
488;DHT22;16586;48.976;9.584;2023-03-21T07:00:58;11.90;52.30
488;DHT22;16586;48.976;9.584;2023-03-21T07:03:26;11.90;52.40
488;DHT22;16586;48.976;9.584;2023-03-21T07:05:54;12.00;52.50
488;DHT22;16586;48.976;9.584;2023-03-21T07:08:21;12.10;52.50
488;DHT22;16586;48.976;9.584;2023-03-21T07:10:47;12.30;52.70
488;DHT22;16586;48.976;9.584;2023-03-21T07:13:14;12.30;52.30
488;DHT22;16586;48.976;9.584;2023-03-21T07:15:42;12.40;52.30
488;DHT22;16586;48.976;9.584;2023-03-21T07:18:09;12.50;52.30
488;DHT22;16586;48.976;9.584;2023-03-21T07:20:37;12.60;52.00
488;DHT22;16586;48.976;9.584;2023-03-21T07:23:04;12.70;52.00
488;DHT22;16586;48.976;9.584;2023-03-21T07:25:31;12.90;51.90
488;DHT22;16586;48.976;9.584;2023-03-21T07:27:58;13.00;51.70
488;DHT22;16586;48.976;9.584;2023-03-21T07:30:26;13.10;51.20
488;DHT22;16586;48.976;9.584;2023-03-21T07:32:53;13.10;50.30
488;DHT22;16586;48.976;9.584;2023-03-21T07:35:20;13.10;50.40
488;DHT22;16586;48.976;9.584;2023-03-21T07:37:48;13.20;50.20
488;DHT22;16586;48.976;9.584;2023-03-21T07:40:15;13.30;50.10
488;DHT22;16586;48.976;9.584;2023-03-21T07:42:42;13.40;49.80
488;DHT22;16586;48.976;9.584;2023-03-21T07:45:09;13.50;49.40
488;DHT22;16586;48.976;9.584;2023-03-21T07:47:39;13.60;49.20
488;DHT22;16586;48.976;9.584;2023-03-21T07:50:07;13.70;49.00
488;DHT22;16586;48.976;9.584;2023-03-21T07:52:34;13.70;48.70
488;DHT22;16586;48.976;9.584;2023-03-21T07:55:02;13.80;48.50
488;DHT22;16586;48.976;9.584;2023-03-21T07:57:29;13.80;48.10
488;DHT22;16586;48.976;9.584;2023-03-21T07:59:56;13.90;47.60
488;DHT22;16586;48.976;9.584;2023-03-21T08:02:23;13.90;47.80
488;DHT22;16586;48.976;9.584;2023-03-21T08:04:49;14.00;47.50
488;DHT22;16586;48.976;9.584;2023-03-21T08:07:17;14.00;47.40
488;DHT22;16586;48.976;9.584;2023-03-21T08:09:43;14.10;47.30
488;DHT22;16586;48.976;9.584;2023-03-21T08:12:12;14.10;47.40
488;DHT22;16586;48.976;9.584;2023-03-21T08:14:38;14.20;47.30
488;DHT22;16586;48.976;9.584;2023-03-21T08:17:05;14.30;47.20
488;DHT22;16586;48.976;9.584;2023-03-21T08:19:33;14.40;46.90
488;DHT22;16586;48.976;9.584;2023-03-21T08:22:02;14.40;45.80
488;DHT22;16586;48.976;9.584;2023-03-21T08:24:30;14.30;45.60
488;DHT22;16586;48.976;9.584;2023-03-21T08:26:58;14.20;45.20
488;DHT22;16586;48.976;9.584;2023-03-21T08:29:26;14.20;44.90
488;DHT22;16586;48.976;9.584;2023-03-21T08:31:53;14.10;45.00
488;DHT22;16586;48.976;9.584;2023-03-21T08:34:20;14.10;45.20
488;DHT22;16586;48.976;9.584;2023-03-21T08:36:48;14.10;45.50
488;DHT22;16586;48.976;9.584;2023-03-21T08:39:15;14.10;45.60
488;DHT22;16586;48.976;9.584;2023-03-21T08:41:42;14.00;44.00
488;DHT22;16586;48.976;9.584;2023-03-21T08:44:09;13.80;45.10
488;DHT22;16586;48.976;9.584;2023-03-21T08:46:37;13.80;44.70
488;DHT22;16586;48.976;9.584;2023-03-21T08:49:04;13.90;42.00
488;DHT22;16586;48.976;9.584;2023-03-21T08:51:31;13.80;41.50
488;DHT22;16586;48.976;9.584;2023-03-21T08:53:58;13.70;40.20
488;DHT22;16586;48.976;9.584;2023-03-21T08:56:25;13.80;40.30
488;DHT22;16586;48.976;9.584;2023-03-21T08:58:51;13.80;39.60
488;DHT22;16586;48.976;9.584;2023-03-21T09:01:18;13.80;39.60
488;DHT22;16586;48.976;9.584;2023-03-21T09:03:46;13.80;38.80
488;DHT22;16586;48.976;9.584;2023-03-21T09:06:13;13.80;38.20
488;DHT22;16586;48.976;9.584;2023-03-21T09:08:40;13.80;37.70
488;DHT22;16586;48.976;9.584;2023-03-21T09:11:07;13.80;38.10
488;DHT22;16586;48.976;9.584;2023-03-21T09:13:34;13.60;38.20
488;DHT22;16586;48.976;9.584;2023-03-21T09:16:01;13.50;38.40
488;DHT22;16586;48.976;9.584;2023-03-21T09:18:29;13.60;38.70
488;DHT22;16586;48.976;9.584;2023-03-21T09:21:11;13.50;39.10
488;DHT22;16586;48.976;9.584;2023-03-21T09:23:39;13.60;39.00
488;DHT22;16586;48.976;9.584;2023-03-21T09:26:07;13.80;39.00
488;DHT22;16586;48.976;9.584;2023-03-21T09:28:34;13.90;38.30
488;DHT22;16586;48.976;9.584;2023-03-21T09:31:04;14.00;38.10
488;DHT22;16586;48.976;9.584;2023-03-21T09:33:32;14.20;37.30
488;DHT22;16586;48.976;9.584;2023-03-21T09:35:59;14.10;37.70
488;DHT22;16586;48.976;9.584;2023-03-21T09:38:29;14.20;38.10
488;DHT22;16586;48.976;9.584;2023-03-21T09:41:10;14.30;37.30
488;DHT22;16586;48.976;9.584;2023-03-21T09:43:51;14.30;37.70
488;DHT22;16586;48.976;9.584;2023-03-21T09:46:27;14.50;36.80
488;DHT22;16586;48.976;9.584;2023-03-21T09:48:58;14.80;37.60
488;DHT22;16586;48.976;9.584;2023-03-21T09:51:30;15.10;35.40
488;DHT22;16586;48.976;9.584;2023-03-21T09:54:03;15.50;34.10
488;DHT22;16586;48.976;9.584;2023-03-21T09:56:31;15.70;32.00
488;DHT22;16586;48.976;9.584;2023-03-21T09:58:59;15.80;32.20
488;DHT22;16586;48.976;9.584;2023-03-21T10:01:28;15.80;32.70
488;DHT22;16586;48.976;9.584;2023-03-21T10:04:01;16.00;32.90
488;DHT22;16586;48.976;9.584;2023-03-21T10:06:29;16.30;33.60
488;DHT22;16586;48.976;9.584;2023-03-21T10:08:58;16.70;31.90
488;DHT22;16586;48.976;9.584;2023-03-21T10:11:30;17.10;30.00
488;DHT22;16586;48.976;9.584;2023-03-21T10:14:01;17.30;30.00
488;DHT22;16586;48.976;9.584;2023-03-21T10:16:32;17.60;31.80
488;DHT22;16586;48.976;9.584;2023-03-21T10:19:02;18.10;30.70
488;DHT22;16586;48.976;9.584;2023-03-21T10:21:29;18.60;30.80
488;DHT22;16586;48.976;9.584;2023-03-21T10:23:57;19.20;29.60
488;DHT22;16586;48.976;9.584;2023-03-21T10:26:28;19.80;28.10
488;DHT22;16586;48.976;9.584;2023-03-21T10:28:58;20.30;26.10
488;DHT22;16586;48.976;9.584;2023-03-21T10:31:27;20.80;27.10
488;DHT22;16586;48.976;9.584;2023-03-21T10:33:56;21.40;25.10
488;DHT22;16586;48.976;9.584;2023-03-21T10:36:26;22.00;25.70
488;DHT22;16586;48.976;9.584;2023-03-21T10:38:56;22.40;23.70
488;DHT22;16586;48.976;9.584;2023-03-21T10:41:25;22.40;23.80
488;DHT22;16586;48.976;9.584;2023-03-21T10:44:06;22.70;23.00
488;DHT22;16586;48.976;9.584;2023-03-21T10:46:33;23.10;23.00
488;DHT22;16586;48.976;9.584;2023-03-21T10:49:00;23.80;23.20
488;DHT22;16586;48.976;9.584;2023-03-21T10:51:30;24.30;21.60
488;DHT22;16586;48.976;9.584;2023-03-21T10:53:59;24.50;21.00
488;DHT22;16586;48.976;9.584;2023-03-21T10:56:28;24.80;21.20
488;DHT22;16586;48.976;9.584;2023-03-21T10:58:56;25.10;20.20
488;DHT22;16586;48.976;9.584;2023-03-21T11:01:28;25.30;20.40
488;DHT22;16586;48.976;9.584;2023-03-21T11:03:59;25.40;20.40
488;DHT22;16586;48.976;9.584;2023-03-21T11:06:28;25.50;20.40
488;DHT22;16586;48.976;9.584;2023-03-21T11:08:59;25.60;20.50
488;DHT22;16586;48.976;9.584;2023-03-21T11:11:32;25.80;20.30
488;DHT22;16586;48.976;9.584;2023-03-21T11:14:01;26.60;19.80
488;DHT22;16586;48.976;9.584;2023-03-21T11:16:37;27.60;18.60
488;DHT22;16586;48.976;9.584;2023-03-21T11:19:13;28.50;18.30
488;DHT22;16586;48.976;9.584;2023-03-21T11:21:40;29.20;16.90
488;DHT22;16586;48.976;9.584;2023-03-21T11:24:12;30.00;17.50
488;DHT22;16586;48.976;9.584;2023-03-21T11:26:41;30.90;15.80
488;DHT22;16586;48.976;9.584;2023-03-21T11:29:25;31.70;14.70
488;DHT22;16586;48.976;9.584;2023-03-21T11:31:57;32.20;14.10
488;DHT22;16586;48.976;9.584;2023-03-21T11:34:30;32.30;17.80
488;DHT22;16586;48.976;9.584;2023-03-21T11:37:00;32.10;20.30
488;DHT22;16586;48.976;9.584;2023-03-21T11:39:33;31.50;18.40
488;DHT22;16586;48.976;9.584;2023-03-21T11:42:01;30.40;18.20
488;DHT22;16586;48.976;9.584;2023-03-21T11:44:31;29.70;17.80
488;DHT22;16586;48.976;9.584;2023-03-21T11:46:59;28.90;17.90
488;DHT22;16586;48.976;9.584;2023-03-21T11:49:27;28.20;17.30
488;DHT22;16586;48.976;9.584;2023-03-21T11:52:03;27.20;17.40
488;DHT22;16586;48.976;9.584;2023-03-21T11:54:39;25.90;18.70
488;DHT22;16586;48.976;9.584;2023-03-21T11:57:16;25.00;20.20
488;DHT22;16586;48.976;9.584;2023-03-21T11:59:50;24.40;20.60
488;DHT22;16586;48.976;9.584;2023-03-21T12:05:22;22.90;21.40
488;DHT22;16586;48.976;9.584;2023-03-21T12:07:58;22.50;21.80
488;DHT22;16586;48.976;9.584;2023-03-21T12:10:37;22.30;22.00
488;DHT22;16586;48.976;9.584;2023-03-21T12:13:28;21.80;23.00
488;DHT22;16586;48.976;9.584;2023-03-21T12:16:09;21.50;23.00
488;DHT22;16586;48.976;9.584;2023-03-21T12:18:58;21.30;23.40
488;DHT22;16586;48.976;9.584;2023-03-21T12:21:32;21.00;24.10
488;DHT22;16586;48.976;9.584;2023-03-21T12:24:04;20.60;24.30
488;DHT22;16586;48.976;9.584;2023-03-21T12:26:39;20.30;24.00
488;DHT22;16586;48.976;9.584;2023-03-21T12:29:25;20.20;24.60
488;DHT22;16586;48.976;9.584;2023-03-21T12:32:05;19.90;24.70
488;DHT22;16586;48.976;9.584;2023-03-21T12:35:03;19.70;25.30
488;DHT22;16586;48.976;9.584;2023-03-21T12:37:37;19.70;25.10
488;DHT22;16586;48.976;9.584;2023-03-21T12:40:13;19.40;25.30
488;DHT22;16586;48.976;9.584;2023-03-21T12:42:55;19.30;25.60
488;DHT22;16586;48.976;9.584;2023-03-21T12:45:29;19.20;25.90
488;DHT22;16586;48.976;9.584;2023-03-21T12:48:15;19.10;25.80
488;DHT22;16586;48.976;9.584;2023-03-21T12:50:46;19.10;26.00
488;DHT22;16586;48.976;9.584;2023-03-21T12:53:27;19.00;26.10
488;DHT22;16586;48.976;9.584;2023-03-21T12:55:56;18.90;26.10
488;DHT22;16586;48.976;9.584;2023-03-21T12:58:27;18.90;26.00
488;DHT22;16586;48.976;9.584;2023-03-21T13:00:56;18.90;25.90
488;DHT22;16586;48.976;9.584;2023-03-21T13:03:29;18.70;26.00
488;DHT22;16586;48.976;9.584;2023-03-21T13:06:01;18.60;26.40
488;DHT22;16586;48.976;9.584;2023-03-21T13:08:32;18.70;26.20
488;DHT22;16586;48.976;9.584;2023-03-21T13:11:01;18.60;26.20
488;DHT22;16586;48.976;9.584;2023-03-21T13:13:32;18.50;26.40
488;DHT22;16586;48.976;9.584;2023-03-21T13:16:05;18.40;26.70
488;DHT22;16586;48.976;9.584;2023-03-21T13:18:43;18.50;26.90
488;DHT22;16586;48.976;9.584;2023-03-21T13:21:19;18.60;26.20
488;DHT22;16586;48.976;9.584;2023-03-21T13:23:59;18.70;26.00
488;DHT22;16586;48.976;9.584;2023-03-21T13:26:37;18.80;26.30
488;DHT22;16586;48.976;9.584;2023-03-21T13:29:30;18.60;26.70
488;DHT22;16586;48.976;9.584;2023-03-21T13:32:06;18.40;26.60
488;DHT22;16586;48.976;9.584;2023-03-21T13:34:34;18.30;27.50
488;DHT22;16586;48.976;9.584;2023-03-21T13:37:04;18.20;28.00
488;DHT22;16586;48.976;9.584;2023-03-21T13:39:31;18.30;27.10
488;DHT22;16586;48.976;9.584;2023-03-21T13:42:03;18.50;27.10
488;DHT22;16586;48.976;9.584;2023-03-21T13:44:38;18.50;26.80
488;DHT22;16586;48.976;9.584;2023-03-21T13:47:22;18.60;26.90
488;DHT22;16586;48.976;9.584;2023-03-21T13:50:16;18.60;27.30
488;DHT22;16586;48.976;9.584;2023-03-21T13:53:19;18.50;27.20
488;DHT22;16586;48.976;9.584;2023-03-21T13:55:57;18.60;27.20
488;DHT22;16586;48.976;9.584;2023-03-21T13:58:31;18.70;27.30
488;DHT22;16586;48.976;9.584;2023-03-21T14:01:25;18.60;27.30
488;DHT22;16586;48.976;9.584;2023-03-21T14:04:11;18.50;27.00
488;DHT22;16586;48.976;9.584;2023-03-21T14:06:43;18.60;26.90
488;DHT22;16586;48.976;9.584;2023-03-21T14:09:23;18.70;27.00
488;DHT22;16586;48.976;9.584;2023-03-21T14:11:51;18.80;27.30
488;DHT22;16586;48.976;9.584;2023-03-21T14:14:20;18.80;27.20
488;DHT22;16586;48.976;9.584;2023-03-21T14:16:47;18.90;26.60
488;DHT22;16586;48.976;9.584;2023-03-21T14:19:14;19.00;26.60
488;DHT22;16586;48.976;9.584;2023-03-21T14:21:48;19.10;26.90
488;DHT22;16586;48.976;9.584;2023-03-21T14:24:19;19.20;26.80
488;DHT22;16586;48.976;9.584;2023-03-21T14:26:49;19.20;27.60
488;DHT22;16586;48.976;9.584;2023-03-21T14:29:22;19.10;26.70
488;DHT22;16586;48.976;9.584;2023-03-21T14:31:50;19.10;27.30
488;DHT22;16586;48.976;9.584;2023-03-21T14:34:17;19.10;26.60
488;DHT22;16586;48.976;9.584;2023-03-21T14:36:45;19.00;26.70
488;DHT22;16586;48.976;9.584;2023-03-21T14:39:15;18.70;26.80
488;DHT22;16586;48.976;9.584;2023-03-21T14:41:48;18.80;27.20
488;DHT22;16586;48.976;9.584;2023-03-21T14:44:20;18.80;27.70
488;DHT22;16586;48.976;9.584;2023-03-21T14:46:51;18.60;27.30
488;DHT22;16586;48.976;9.584;2023-03-21T14:49:21;18.50;27.30
488;DHT22;16586;48.976;9.584;2023-03-21T14:51:50;18.60;26.80
488;DHT22;16586;48.976;9.584;2023-03-21T14:54:19;18.70;27.20
488;DHT22;16586;48.976;9.584;2023-03-21T14:56:50;18.70;27.30
488;DHT22;16586;48.976;9.584;2023-03-21T14:59:21;18.80;26.90
488;DHT22;16586;48.976;9.584;2023-03-21T15:01:49;18.80;27.10
488;DHT22;16586;48.976;9.584;2023-03-21T15:04:17;18.90;27.30
488;DHT22;16586;48.976;9.584;2023-03-21T15:06:56;19.00;27.10
488;DHT22;16586;48.976;9.584;2023-03-21T15:09:26;18.90;26.90
488;DHT22;16586;48.976;9.584;2023-03-21T15:11:55;19.10;26.60
488;DHT22;16586;48.976;9.584;2023-03-21T15:14:25;19.10;26.40
488;DHT22;16586;48.976;9.584;2023-03-21T15:16:53;19.20;27.20
488;DHT22;16586;48.976;9.584;2023-03-21T15:19:27;19.20;27.10
488;DHT22;16586;48.976;9.584;2023-03-21T15:21:58;19.10;27.40
488;DHT22;16586;48.976;9.584;2023-03-21T15:24:29;19.00;26.90
488;DHT22;16586;48.976;9.584;2023-03-21T15:27:01;19.00;26.70
488;DHT22;16586;48.976;9.584;2023-03-21T15:29:29;19.10;26.90
488;DHT22;16586;48.976;9.584;2023-03-21T15:31:56;19.10;27.40
488;DHT22;16586;48.976;9.584;2023-03-21T15:34:26;19.00;27.80
488;DHT22;16586;48.976;9.584;2023-03-21T15:36:57;19.00;27.70
488;DHT22;16586;48.976;9.584;2023-03-21T15:39:27;19.10;27.50
488;DHT22;16586;48.976;9.584;2023-03-21T15:42:02;19.20;27.30
488;DHT22;16586;48.976;9.584;2023-03-21T15:44:30;19.00;26.60
488;DHT22;16586;48.976;9.584;2023-03-21T15:46:57;19.00;26.60
488;DHT22;16586;48.976;9.584;2023-03-21T15:49:27;18.90;26.90
488;DHT22;16586;48.976;9.584;2023-03-21T15:51:58;18.90;26.80
488;DHT22;16586;48.976;9.584;2023-03-21T15:54:28;19.00;27.20
488;DHT22;16586;48.976;9.584;2023-03-21T15:56:56;18.80;27.10
488;DHT22;16586;48.976;9.584;2023-03-21T15:59:31;18.70;27.00
488;DHT22;16586;48.976;9.584;2023-03-21T16:01:58;18.60;27.80
488;DHT22;16586;48.976;9.584;2023-03-21T16:04:25;18.40;28.00
488;DHT22;16586;48.976;9.584;2023-03-21T16:06:57;18.30;28.60
488;DHT22;16586;48.976;9.584;2023-03-21T16:09:24;18.10;28.10
488;DHT22;16586;48.976;9.584;2023-03-21T16:11:52;18.00;28.60
488;DHT22;16586;48.976;9.584;2023-03-21T16:14:23;18.00;28.80
488;DHT22;16586;48.976;9.584;2023-03-21T16:16:53;18.00;29.20
488;DHT22;16586;48.976;9.584;2023-03-21T16:19:20;18.00;29.30
488;DHT22;16586;48.976;9.584;2023-03-21T16:21:49;18.00;29.40
488;DHT22;16586;48.976;9.584;2023-03-21T16:24:17;18.00;28.40
488;DHT22;16586;48.976;9.584;2023-03-21T16:26:45;17.90;29.20
488;DHT22;16586;48.976;9.584;2023-03-21T16:29:13;17.80;29.70
488;DHT22;16586;48.976;9.584;2023-03-21T16:31:40;17.90;30.40